sensor_id;sensor_type;location;lat;lon;timestamp;pressure;altitude;pressure_sealevel;temperature;humidity
30967;BME280;17649;51.836;8.330;2023-08-06T00:00:01;100085.47;;;16.04;100.00
30967;BME280;17649;51.836;8.330;2023-08-06T00:03:03;100083.44;;;16.07;100.00
30967;BME280;17649;51.836;8.330;2023-08-06T00:06:06;100082.31;;;16.00;100.00
30967;BME280;17649;51.836;8.330;2023-08-06T00:09:06;100078.00;;;15.90;100.00
30967;BME280;17649;51.836;8.330;2023-08-06T00:12:07;100078.97;;;15.89;100.00
30967;BME280;17649;51.836;8.330;2023-08-06T00:15:07;100067.69;;;15.88;100.00
30967;BME280;17649;51.836;8.330;2023-08-06T00:18:08;100067.69;;;15.88;100.00
30967;BME280;17649;51.836;8.330;2023-08-06T00:21:08;100069.22;;;15.91;100.00
30967;BME280;17649;51.836;8.330;2023-08-06T00:24:08;100060.31;;;15.93;100.00
30967;BME280;17649;51.836;8.330;2023-08-06T00:27:08;100058.09;;;15.89;100.00
30967;BME280;17649;51.836;8.330;2023-08-06T00:30:09;100057.25;;;15.78;100.00
30967;BME280;17649;51.836;8.330;2023-08-06T00:33:09;100055.69;;;15.76;100.00
30967;BME280;17649;51.836;8.330;2023-08-06T00:36:10;100050.38;;;15.77;100.00
30967;BME280;17649;51.836;8.330;2023-08-06T00:39:10;100049.94;;;15.72;100.00
30967;BME280;17649;51.836;8.330;2023-08-06T00:42:11;100050.97;;;15.60;100.00
30967;BME280;17649;51.836;8.330;2023-08-06T00:45:11;100047.47;;;15.50;100.00
30967;BME280;17649;51.836;8.330;2023-08-06T00:48:12;100049.38;;;15.48;100.00
30967;BME280;17649;51.836;8.330;2023-08-06T00:51:12;100040.84;;;15.46;100.00
30967;BME280;17649;51.836;8.330;2023-08-06T00:54:13;100040.00;;;15.36;100.00
30967;BME280;17649;51.836;8.330;2023-08-06T00:57:14;100043.78;;;15.32;100.00
30967;BME280;17649;51.836;8.330;2023-08-06T01:00:14;100043.75;;;15.22;100.00
30967;BME280;17649;51.836;8.330;2023-08-06T01:03:14;100038.66;;;15.20;100.00
30967;BME280;17649;51.836;8.330;2023-08-06T01:06:15;100032.94;;;15.27;100.00
30967;BME280;17649;51.836;8.330;2023-08-06T01:15:28;100025.66;;;15.30;100.00
30967;BME280;17649;51.836;8.330;2023-08-06T01:18:29;100021.53;;;15.28;100.00
30967;BME280;17649;51.836;8.330;2023-08-06T01:21:29;100028.81;;;15.24;100.00
30967;BME280;17649;51.836;8.330;2023-08-06T01:24:29;100022.50;;;15.27;100.00
30967;BME280;17649;51.836;8.330;2023-08-06T01:27:43;100016.34;;;15.28;100.00
30967;BME280;17649;51.836;8.330;2023-08-06T01:30:45;100015.50;;;15.27;100.00
30967;BME280;17649;51.836;8.330;2023-08-06T01:33:46;100023.59;;;15.24;100.00
30967;BME280;17649;51.836;8.330;2023-08-06T01:36:48;100017.72;;;15.32;100.00
30967;BME280;17649;51.836;8.330;2023-08-06T01:39:48;100016.69;;;15.44;100.00
30967;BME280;17649;51.836;8.330;2023-08-06T01:42:49;100013.13;;;15.45;100.00
30967;BME280;17649;51.836;8.330;2023-08-06T01:45:49;100007.91;;;15.45;100.00
30967;BME280;17649;51.836;8.330;2023-08-06T01:48:49;100000.78;;;15.47;100.00
30967;BME280;17649;51.836;8.330;2023-08-06T01:51:49;100000.88;;;15.36;100.00
30967;BME280;17649;51.836;8.330;2023-08-06T01:54:49;99994.84;;;15.35;100.00
30967;BME280;17649;51.836;8.330;2023-08-06T01:57:50;99998.03;;;15.39;100.00
30967;BME280;17649;51.836;8.330;2023-08-06T02:00:50;99981.13;;;15.33;100.00
30967;BME280;17649;51.836;8.330;2023-08-06T02:03:50;99979.84;;;15.28;100.00
30967;BME280;17649;51.836;8.330;2023-08-06T02:06:50;99983.41;;;15.27;100.00
30967;BME280;17649;51.836;8.330;2023-08-06T02:09:51;99979.16;;;15.26;100.00
30967;BME280;17649;51.836;8.330;2023-08-06T02:12:51;99969.13;;;15.21;100.00
30967;BME280;17649;51.836;8.330;2023-08-06T02:15:51;99973.72;;;15.08;100.00
30967;BME280;17649;51.836;8.330;2023-08-06T02:18:51;99976.66;;;14.94;100.00
30967;BME280;17649;51.836;8.330;2023-08-06T02:21:51;99974.78;;;14.84;100.00
30967;BME280;17649;51.836;8.330;2023-08-06T02:24:52;99970.28;;;14.66;100.00
30967;BME280;17649;51.836;8.330;2023-08-06T02:27:52;99962.53;;;14.54;100.00
30967;BME280;17649;51.836;8.330;2023-08-06T02:30:52;99965.34;;;14.63;100.00
30967;BME280;17649;51.836;8.330;2023-08-06T02:33:52;99961.56;;;14.55;100.00
30967;BME280;17649;51.836;8.330;2023-08-06T02:36:53;99960.44;;;14.48;100.00
30967;BME280;17649;51.836;8.330;2023-08-06T02:39:54;99961.97;;;14.40;100.00
30967;BME280;17649;51.836;8.330;2023-08-06T02:42:54;99953.84;;;14.33;100.00
30967;BME280;17649;51.836;8.330;2023-08-06T02:45:57;99948.88;;;14.30;100.00
30967;BME280;17649;51.836;8.330;2023-08-06T02:48:58;99949.84;;;14.29;100.00
30967;BME280;17649;51.836;8.330;2023-08-06T02:51:58;99949.88;;;14.18;100.00
30967;BME280;17649;51.836;8.330;2023-08-06T02:54:58;99943.28;;;14.14;100.00
30967;BME280;17649;51.836;8.330;2023-08-06T02:58:00;99942.72;;;13.99;100.00
30967;BME280;17649;51.836;8.330;2023-08-06T03:04:03;99934.03;;;14.10;100.00
30967;BME280;17649;51.836;8.330;2023-08-06T03:07:03;99939.41;;;13.97;100.00
30967;BME280;17649;51.836;8.330;2023-08-06T03:10:03;99939.31;;;13.87;100.00
30967;BME280;17649;51.836;8.330;2023-08-06T03:13:04;99936.47;;;13.90;100.00
30967;BME280;17649;51.836;8.330;2023-08-06T03:16:04;99921.44;;;13.94;100.00
30967;BME280;17649;51.836;8.330;2023-08-06T03:19:04;99919.63;;;14.06;100.00
30967;BME280;17649;51.836;8.330;2023-08-06T03:22:04;99923.47;;;13.90;100.00
30967;BME280;17649;51.836;8.330;2023-08-06T03:25:05;99928.91;;;13.87;100.00
30967;BME280;17649;51.836;8.330;2023-08-06T03:28:05;99934.69;;;13.91;100.00
30967;BME280;17649;51.836;8.330;2023-08-06T03:31:05;99926.38;;;14.08;100.00
30967;BME280;17649;51.836;8.330;2023-08-06T03:34:06;99932.81;;;14.25;100.00
30967;BME280;17649;51.836;8.330;2023-08-06T03:37:06;99922.47;;;14.35;100.00
30967;BME280;17649;51.836;8.330;2023-08-06T03:40:06;99921.16;;;14.40;100.00
30967;BME280;17649;51.836;8.330;2023-08-06T03:43:07;99914.41;;;14.49;100.00
30967;BME280;17649;51.836;8.330;2023-08-06T03:46:07;99904.94;;;14.48;100.00
30967;BME280;17649;51.836;8.330;2023-08-06T03:49:07;99903.63;;;14.42;100.00
30967;BME280;17649;51.836;8.330;2023-08-06T03:52:08;99903.88;;;14.39;100.00
30967;BME280;17649;51.836;8.330;2023-08-06T03:55:08;99907.19;;;14.41;100.00
30967;BME280;17649;51.836;8.330;2023-08-06T03:58:08;99905.38;;;14.53;100.00
30967;BME280;17649;51.836;8.330;2023-08-06T04:01:09;99900.81;;;14.66;100.00
30967;BME280;17649;51.836;8.330;2023-08-06T04:04:09;99895.91;;;14.73;100.00
30967;BME280;17649;51.836;8.330;2023-08-06T04:07:09;99891.84;;;14.80;100.00
30967;BME280;17649;51.836;8.330;2023-08-06T04:10:09;99887.03;;;14.75;100.00
30967;BME280;17649;51.836;8.330;2023-08-06T04:13:10;99893.75;;;14.78;100.00
30967;BME280;17649;51.836;8.330;2023-08-06T04:16:10;99896.38;;;14.78;100.00
30967;BME280;17649;51.836;8.330;2023-08-06T04:19:10;99898.63;;;14.92;100.00
30967;BME280;17649;51.836;8.330;2023-08-06T04:22:11;99892.72;;;14.90;100.00
30967;BME280;17649;51.836;8.330;2023-08-06T04:25:11;99891.78;;;14.91;100.00
30967;BME280;17649;51.836;8.330;2023-08-06T04:28:11;99887.00;;;14.96;100.00
30967;BME280;17649;51.836;8.330;2023-08-06T04:31:11;99885.97;;;14.87;100.00
30967;BME280;17649;51.836;8.330;2023-08-06T04:34:12;99890.81;;;14.92;100.00
30967;BME280;17649;51.836;8.330;2023-08-06T04:37:12;99889.13;;;14.81;100.00
30967;BME280;17649;51.836;8.330;2023-08-06T04:40:12;99888.59;;;14.87;100.00
30967;BME280;17649;51.836;8.330;2023-08-06T04:43:13;99891.50;;;14.94;100.00
30967;BME280;17649;51.836;8.330;2023-08-06T04:46:13;99894.13;;;14.94;100.00
30967;BME280;17649;51.836;8.330;2023-08-06T04:49:13;99889.44;;;14.88;100.00
30967;BME280;17649;51.836;8.330;2023-08-06T04:52:13;99894.31;;;14.81;100.00
30967;BME280;17649;51.836;8.330;2023-08-06T04:55:14;99892.94;;;14.77;100.00
30967;BME280;17649;51.836;8.330;2023-08-06T04:58:14;99892.47;;;14.72;100.00
30967;BME280;17649;51.836;8.330;2023-08-06T05:01:14;99892.13;;;14.77;100.00
30967;BME280;17649;51.836;8.330;2023-08-06T05:04:15;99886.72;;;14.69;100.00
30967;BME280;17649;51.836;8.330;2023-08-06T05:07:15;99897.69;;;14.72;100.00
30967;BME280;17649;51.836;8.330;2023-08-06T05:10:15;99899.22;;;14.75;100.00
30967;BME280;17649;51.836;8.330;2023-08-06T05:13:16;99903.16;;;14.90;100.00
30967;BME280;17649;51.836;8.330;2023-08-06T05:16:16;99897.41;;;14.96;100.00
30967;BME280;17649;51.836;8.330;2023-08-06T05:19:16;99899.50;;;15.02;100.00
30967;BME280;17649;51.836;8.330;2023-08-06T05:22:16;99906.00;;;15.17;100.00
30967;BME280;17649;51.836;8.330;2023-08-06T05:25:16;99904.81;;;15.21;100.00
30967;BME280;17649;51.836;8.330;2023-08-06T05:28:17;99900.19;;;15.35;100.00
30967;BME280;17649;51.836;8.330;2023-08-06T05:31:17;99896.50;;;15.37;100.00
30967;BME280;17649;51.836;8.330;2023-08-06T05:34:17;99903.63;;;15.45;100.00
30967;BME280;17649;51.836;8.330;2023-08-06T05:37:17;99908.75;;;15.56;100.00
30967;BME280;17649;51.836;8.330;2023-08-06T05:40:18;99903.47;;;15.67;100.00
30967;BME280;17649;51.836;8.330;2023-08-06T05:43:18;99909.19;;;15.61;100.00
30967;BME280;17649;51.836;8.330;2023-08-06T05:46:18;99905.66;;;15.62;100.00
30967;BME280;17649;51.836;8.330;2023-08-06T05:49:18;99912.38;;;15.65;100.00
30967;BME280;17649;51.836;8.330;2023-08-06T05:52:18;99906.06;;;15.67;100.00
30967;BME280;17649;51.836;8.330;2023-08-06T05:55:19;99909.53;;;15.77;100.00
30967;BME280;17649;51.836;8.330;2023-08-06T05:58:20;99898.94;;;15.89;100.00
30967;BME280;17649;51.836;8.330;2023-08-06T06:01:20;99911.19;;;15.98;100.00
30967;BME280;17649;51.836;8.330;2023-08-06T06:04:20;99909.56;;;16.16;100.00
30967;BME280;17649;51.836;8.330;2023-08-06T06:07:20;99912.03;;;16.37;100.00
30967;BME280;17649;51.836;8.330;2023-08-06T06:10:21;99906.66;;;16.58;100.00
30967;BME280;17649;51.836;8.330;2023-08-06T06:13:21;99903.75;;;16.61;100.00
30967;BME280;17649;51.836;8.330;2023-08-06T06:16:21;99891.06;;;16.66;100.00
30967;BME280;17649;51.836;8.330;2023-08-06T06:19:21;99892.22;;;16.73;100.00
30967;BME280;17649;51.836;8.330;2023-08-06T06:22:21;99897.78;;;16.97;100.00
30967;BME280;17649;51.836;8.330;2023-08-06T06:25:22;99898.03;;;17.41;100.00
30967;BME280;17649;51.836;8.330;2023-08-06T06:28:22;99891.31;;;17.56;100.00
30967;BME280;17649;51.836;8.330;2023-08-06T06:31:22;99883.75;;;17.81;100.00
30967;BME280;17649;51.836;8.330;2023-08-06T06:34:23;99881.06;;;17.73;100.00
30967;BME280;17649;51.836;8.330;2023-08-06T06:37:23;99878.59;;;18.07;100.00
30967;BME280;17649;51.836;8.330;2023-08-06T06:40:23;99876.03;;;18.15;100.00
30967;BME280;17649;51.836;8.330;2023-08-06T06:43:23;99878.44;;;18.26;100.00
30967;BME280;17649;51.836;8.330;2023-08-06T06:46:24;99875.09;;;18.16;100.00
30967;BME280;17649;51.836;8.330;2023-08-06T06:49:27;99872.28;;;18.35;100.00
30967;BME280;17649;51.836;8.330;2023-08-06T06:52:27;99852.59;;;18.49;100.00
30967;BME280;17649;51.836;8.330;2023-08-06T06:55:27;99860.28;;;18.51;100.00
30967;BME280;17649;51.836;8.330;2023-08-06T06:58:28;99867.00;;;18.53;100.00
30967;BME280;17649;51.836;8.330;2023-08-06T07:01:28;99864.72;;;18.50;100.00
30967;BME280;17649;51.836;8.330;2023-08-06T07:04:28;99861.47;;;18.12;100.00
30967;BME280;17649;51.836;8.330;2023-08-06T07:07:28;99867.06;;;18.00;100.00
30967;BME280;17649;51.836;8.330;2023-08-06T07:10:29;99861.78;;;17.92;100.00
30967;BME280;17649;51.836;8.330;2023-08-06T07:13:29;99875.00;;;17.72;100.00
30967;BME280;17649;51.836;8.330;2023-08-06T07:16:29;99876.28;;;18.04;100.00
30967;BME280;17649;51.836;8.330;2023-08-06T07:19:30;99867.09;;;18.17;100.00
30967;BME280;17649;51.836;8.330;2023-08-06T07:22:30;99864.38;;;18.27;100.00
30967;BME280;17649;51.836;8.330;2023-08-06T07:25:30;99864.41;;;18.53;100.00
30967;BME280;17649;51.836;8.330;2023-08-06T07:28:30;99856.38;;;18.55;100.00
30967;BME280;17649;51.836;8.330;2023-08-06T07:31:31;99862.09;;;18.50;100.00
30967;BME280;17649;51.836;8.330;2023-08-06T07:34:31;99858.53;;;18.33;100.00
30967;BME280;17649;51.836;8.330;2023-08-06T07:37:31;99861.00;;;18.35;100.00
30967;BME280;17649;51.836;8.330;2023-08-06T07:40:31;99860.56;;;18.22;100.00
30967;BME280;17649;51.836;8.330;2023-08-06T07:43:32;99858.72;;;18.84;100.00
30967;BME280;17649;51.836;8.330;2023-08-06T07:46:32;99862.16;;;19.18;100.00
30967;BME280;17649;51.836;8.330;2023-08-06T07:49:32;99852.63;;;19.09;100.00
30967;BME280;17649;51.836;8.330;2023-08-06T07:52:32;99849.69;;;19.12;100.00
30967;BME280;17649;51.836;8.330;2023-08-06T07:55:33;99852.59;;;19.51;100.00
30967;BME280;17649;51.836;8.330;2023-08-06T07:58:33;99845.81;;;19.83;100.00
30967;BME280;17649;51.836;8.330;2023-08-06T08:01:33;99839.72;;;19.90;100.00
30967;BME280;17649;51.836;8.330;2023-08-06T08:04:33;99843.69;;;20.27;100.00
30967;BME280;17649;51.836;8.330;2023-08-06T08:07:34;99835.78;;;20.60;100.00
30967;BME280;17649;51.836;8.330;2023-08-06T08:10:34;99829.63;;;20.83;100.00
30967;BME280;17649;51.836;8.330;2023-08-06T08:13:34;99832.16;;;20.69;100.00
30967;BME280;17649;51.836;8.330;2023-08-06T08:16:35;99833.66;;;20.06;100.00
30967;BME280;17649;51.836;8.330;2023-08-06T08:19:35;99826.59;;;20.39;100.00
30967;BME280;17649;51.836;8.330;2023-08-06T08:22:35;99822.94;;;20.73;100.00
30967;BME280;17649;51.836;8.330;2023-08-06T08:25:35;99816.38;;;20.61;100.00
30967;BME280;17649;51.836;8.330;2023-08-06T08:28:35;99814.00;;;20.82;100.00
30967;BME280;17649;51.836;8.330;2023-08-06T08:31:36;99814.22;;;20.72;100.00
30967;BME280;17649;51.836;8.330;2023-08-06T08:34:39;99816.69;;;20.66;100.00
30967;BME280;17649;51.836;8.330;2023-08-06T08:37:39;99813.53;;;20.87;100.00
30967;BME280;17649;51.836;8.330;2023-08-06T08:40:41;99814.63;;;20.92;100.00
30967;BME280;17649;51.836;8.330;2023-08-06T08:43:45;99809.44;;;20.68;100.00
30967;BME280;17649;51.836;8.330;2023-08-06T08:46:46;99805.69;;;20.70;100.00
30967;BME280;17649;51.836;8.330;2023-08-06T08:49:47;99803.81;;;20.87;100.00
30967;BME280;17649;51.836;8.330;2023-08-06T08:52:48;99804.50;;;21.12;100.00
30967;BME280;17649;51.836;8.330;2023-08-06T08:55:50;99811.59;;;21.11;100.00
30967;BME280;17649;51.836;8.330;2023-08-06T08:58:51;99815.00;;;21.28;100.00
30967;BME280;17649;51.836;8.330;2023-08-06T09:01:55;99809.50;;;21.38;100.00
30967;BME280;17649;51.836;8.330;2023-08-06T09:04:57;99806.28;;;21.59;100.00
30967;BME280;17649;51.836;8.330;2023-08-06T09:08:02;99791.13;;;22.21;100.00
30967;BME280;17649;51.836;8.330;2023-08-06T09:11:04;99803.41;;;22.44;100.00
30967;BME280;17649;51.836;8.330;2023-08-06T09:14:05;99800.22;;;23.22;100.00
30967;BME280;17649;51.836;8.330;2023-08-06T09:17:07;99796.13;;;23.56;100.00
30967;BME280;17649;51.836;8.330;2023-08-06T09:20:11;99804.75;;;23.28;100.00
30967;BME280;17649;51.836;8.330;2023-08-06T09:23:12;99782.88;;;24.48;100.00
30967;BME280;17649;51.836;8.330;2023-08-06T09:26:12;99785.75;;;24.94;100.00
30967;BME280;17649;51.836;8.330;2023-08-06T09:29:13;99794.91;;;24.91;100.00
30967;BME280;17649;51.836;8.330;2023-08-06T09:32:14;99786.31;;;24.42;100.00
30967;BME280;17649;51.836;8.330;2023-08-06T09:35:15;99790.19;;;23.68;100.00
30967;BME280;17649;51.836;8.330;2023-08-06T09:38:16;99785.41;;;24.62;100.00
30967;BME280;17649;51.836;8.330;2023-08-06T09:41:28;99789.97;;;24.41;100.00
30967;BME280;17649;51.836;8.330;2023-08-06T09:44:32;99780.19;;;23.49;100.00
30967;BME280;17649;51.836;8.330;2023-08-06T09:47:32;99788.19;;;23.56;100.00
30967;BME280;17649;51.836;8.330;2023-08-06T09:50:33;99784.91;;;23.68;100.00
30967;BME280;17649;51.836;8.330;2023-08-06T09:53:37;99782.88;;;23.13;100.00
30967;BME280;17649;51.836;8.330;2023-08-06T09:56:38;99776.63;;;22.84;100.00
30967;BME280;17649;51.836;8.330;2023-08-06T09:59:38;99784.72;;;22.39;100.00
30967;BME280;17649;51.836;8.330;2023-08-06T10:02:39;99785.16;;;22.57;100.00
30967;BME280;17649;51.836;8.330;2023-08-06T10:05:40;99783.31;;;22.13;100.00
30967;BME280;17649;51.836;8.330;2023-08-06T10:08:40;99784.13;;;22.28;100.00
30967;BME280;17649;51.836;8.330;2023-08-06T10:11:42;99782.81;;;22.62;100.00
30967;BME280;17649;51.836;8.330;2023-08-06T10:14:43;99778.91;;;22.87;100.00
30967;BME280;17649;51.836;8.330;2023-08-06T10:17:45;99784.53;;;22.99;100.00
30967;BME280;17649;51.836;8.330;2023-08-06T10:20:47;99786.72;;;22.51;100.00
30967;BME280;17649;51.836;8.330;2023-08-06T10:23:49;99784.34;;;22.42;100.00
30967;BME280;17649;51.836;8.330;2023-08-06T10:26:56;99790.97;;;22.23;100.00
30967;BME280;17649;51.836;8.330;2023-08-06T10:30:20;99790.97;;;22.00;100.00
30967;BME280;17649;51.836;8.330;2023-08-06T10:33:16;99782.22;;;21.62;100.00
30967;BME280;17649;51.836;8.330;2023-08-06T10:36:19;99779.28;;;22.02;100.00
30967;BME280;17649;51.836;8.330;2023-08-06T10:39:19;99785.78;;;21.92;100.00
30967;BME280;17649;51.836;8.330;2023-08-06T10:42:20;99782.97;;;21.93;100.00
30967;BME280;17649;51.836;8.330;2023-08-06T10:45:21;99780.28;;;21.79;100.00
30967;BME280;17649;51.836;8.330;2023-08-06T10:51:33;99769.69;;;22.24;100.00
30967;BME280;17649;51.836;8.330;2023-08-06T10:54:34;99773.97;;;22.70;100.00
30967;BME280;17649;51.836;8.330;2023-08-06T10:57:35;99774.25;;;22.89;100.00
30967;BME280;17649;51.836;8.330;2023-08-06T11:00:36;99772.50;;;23.11;100.00
30967;BME280;17649;51.836;8.330;2023-08-06T11:03:36;99766.00;;;23.93;100.00
30967;BME280;17649;51.836;8.330;2023-08-06T11:06:37;99763.06;;;24.30;100.00
30967;BME280;17649;51.836;8.330;2023-08-06T11:09:37;99760.03;;;25.22;100.00
30967;BME280;17649;51.836;8.330;2023-08-06T11:12:37;99753.56;;;25.45;100.00
30967;BME280;17649;51.836;8.330;2023-08-06T11:15:38;99748.47;;;26.16;100.00
30967;BME280;17649;51.836;8.330;2023-08-06T11:18:40;99757.97;;;24.07;100.00
30967;BME280;17649;51.836;8.330;2023-08-06T11:21:42;99761.44;;;25.18;100.00
30967;BME280;17649;51.836;8.330;2023-08-06T11:24:44;99757.44;;;25.49;100.00
30967;BME280;17649;51.836;8.330;2023-08-06T11:27:44;99757.00;;;25.39;100.00
30967;BME280;17649;51.836;8.330;2023-08-06T11:30:44;99761.84;;;25.15;100.00
30967;BME280;17649;51.836;8.330;2023-08-06T11:33:45;99761.13;;;24.52;100.00
30967;BME280;17649;51.836;8.330;2023-08-06T11:36:45;99774.47;;;23.45;100.00
30967;BME280;17649;51.836;8.330;2023-08-06T11:39:48;99780.69;;;23.02;100.00
30967;BME280;17649;51.836;8.330;2023-08-06T11:42:49;99779.34;;;22.17;100.00
30967;BME280;17649;51.836;8.330;2023-08-06T11:45:50;99785.56;;;22.16;100.00
30967;BME280;17649;51.836;8.330;2023-08-06T11:48:52;99795.03;;;21.88;100.00
30967;BME280;17649;51.836;8.330;2023-08-06T11:51:53;99793.50;;;21.48;100.00
30967;BME280;17649;51.836;8.330;2023-08-06T11:55:03;99792.59;;;20.93;100.00
30967;BME280;17649;51.836;8.330;2023-08-06T11:58:04;99801.47;;;20.29;100.00
30967;BME280;17649;51.836;8.330;2023-08-06T12:01:04;99802.31;;;20.05;100.00
30967;BME280;17649;51.836;8.330;2023-08-06T12:04:05;99803.75;;;19.58;100.00
30967;BME280;17649;51.836;8.330;2023-08-06T12:07:06;99806.25;;;19.68;100.00
30967;BME280;17649;51.836;8.330;2023-08-06T12:10:07;99805.59;;;19.90;100.00
30967;BME280;17649;51.836;8.330;2023-08-06T12:13:08;99801.66;;;19.86;100.00
30967;BME280;17649;51.836;8.330;2023-08-06T12:16:08;99805.25;;;19.93;100.00
30967;BME280;17649;51.836;8.330;2023-08-06T12:19:08;99806.06;;;19.78;100.00
30967;BME280;17649;51.836;8.330;2023-08-06T12:22:09;99808.88;;;19.84;100.00
30967;BME280;17649;51.836;8.330;2023-08-06T12:25:10;99810.66;;;19.76;100.00
30967;BME280;17649;51.836;8.330;2023-08-06T12:28:12;99805.75;;;19.64;100.00
30967;BME280;17649;51.836;8.330;2023-08-06T12:31:13;99793.13;;;19.68;100.00
30967;BME280;17649;51.836;8.330;2023-08-06T12:34:13;99795.03;;;19.42;100.00
30967;BME280;17649;51.836;8.330;2023-08-06T12:37:14;99795.97;;;19.24;100.00
30967;BME280;17649;51.836;8.330;2023-08-06T12:40:14;99812.41;;;19.34;100.00
30967;BME280;17649;51.836;8.330;2023-08-06T12:43:14;99802.53;;;19.28;100.00
30967;BME280;17649;51.836;8.330;2023-08-06T12:46:14;99806.09;;;19.19;100.00
30967;BME280;17649;51.836;8.330;2023-08-06T12:49:14;99812.66;;;19.15;100.00
30967;BME280;17649;51.836;8.330;2023-08-06T12:52:15;99809.84;;;19.17;100.00
30967;BME280;17649;51.836;8.330;2023-08-06T12:55:16;99819.50;;;19.08;100.00
30967;BME280;17649;51.836;8.330;2023-08-06T12:58:16;99817.41;;;18.77;100.00
30967;BME280;17649;51.836;8.330;2023-08-06T13:01:16;99829.72;;;18.59;100.00
30967;BME280;17649;51.836;8.330;2023-08-06T13:04:17;99841.31;;;18.57;100.00
30967;BME280;17649;51.836;8.330;2023-08-06T13:07:17;99848.69;;;18.53;100.00
30967;BME280;17649;51.836;8.330;2023-08-06T13:10:17;99847.97;;;18.25;100.00
30967;BME280;17649;51.836;8.330;2023-08-06T13:13:17;99852.19;;;18.00;100.00
30967;BME280;17649;51.836;8.330;2023-08-06T13:16:18;99848.88;;;18.34;100.00
30967;BME280;17649;51.836;8.330;2023-08-06T13:19:18;99864.06;;;18.12;100.00
30967;BME280;17649;51.836;8.330;2023-08-06T13:22:18;99872.53;;;18.06;100.00
30967;BME280;17649;51.836;8.330;2023-08-06T13:25:20;99863.25;;;18.12;100.00
30967;BME280;17649;51.836;8.330;2023-08-06T13:28:20;99864.38;;;18.09;100.00
30967;BME280;17649;51.836;8.330;2023-08-06T13:31:21;99869.94;;;17.88;100.00
30967;BME280;17649;51.836;8.330;2023-08-06T13:34:21;99860.44;;;17.87;100.00
30967;BME280;17649;51.836;8.330;2023-08-06T13:37:21;99856.03;;;17.88;100.00
30967;BME280;17649;51.836;8.330;2023-08-06T13:40:21;99855.06;;;17.89;100.00
30967;BME280;17649;51.836;8.330;2023-08-06T13:43:21;99861.69;;;17.83;100.00
30967;BME280;17649;51.836;8.330;2023-08-06T13:46:22;99873.81;;;17.84;100.00
30967;BME280;17649;51.836;8.330;2023-08-06T13:49:22;99876.56;;;17.55;100.00
30967;BME280;17649;51.836;8.330;2023-08-06T13:52:22;99880.09;;;17.92;100.00
30967;BME280;17649;51.836;8.330;2023-08-06T13:55:22;99894.69;;;17.94;100.00
30967;BME280;17649;51.836;8.330;2023-08-06T13:58:23;99884.72;;;17.98;100.00
30967;BME280;17649;51.836;8.330;2023-08-06T14:01:23;99891.25;;;17.94;100.00
30967;BME280;17649;51.836;8.330;2023-08-06T14:04:24;99896.16;;;17.97;100.00
30967;BME280;17649;51.836;8.330;2023-08-06T14:07:24;99900.00;;;18.02;100.00
30967;BME280;17649;51.836;8.330;2023-08-06T14:10:24;99902.84;;;18.09;100.00
30967;BME280;17649;51.836;8.330;2023-08-06T14:13:24;99897.34;;;17.84;100.00
30967;BME280;17649;51.836;8.330;2023-08-06T14:16:24;99900.16;;;18.18;100.00
30967;BME280;17649;51.836;8.330;2023-08-06T14:19:25;99898.69;;;18.42;100.00
30967;BME280;17649;51.836;8.330;2023-08-06T14:22:25;99901.63;;;18.39;100.00
30967;BME280;17649;51.836;8.330;2023-08-06T14:25:25;99898.94;;;18.31;100.00
30967;BME280;17649;51.836;8.330;2023-08-06T14:28:25;99909.41;;;18.31;100.00
30967;BME280;17649;51.836;8.330;2023-08-06T14:31:26;99908.38;;;18.24;100.00
30967;BME280;17649;51.836;8.330;2023-08-06T14:34:26;99926.28;;;17.83;100.00
30967;BME280;17649;51.836;8.330;2023-08-06T14:37:27;99928.53;;;17.78;100.00
30967;BME280;17649;51.836;8.330;2023-08-06T14:40:27;99936.69;;;17.75;100.00
30967;BME280;17649;51.836;8.330;2023-08-06T14:43:33;99947.34;;;17.54;100.00
30967;BME280;17649;51.836;8.330;2023-08-06T14:46:33;99950.53;;;17.57;100.00
30967;BME280;17649;51.836;8.330;2023-08-06T14:49:33;99954.31;;;17.73;100.00
30967;BME280;17649;51.836;8.330;2023-08-06T14:52:34;99956.66;;;17.76;100.00
30967;BME280;17649;51.836;8.330;2023-08-06T14:55:34;99954.81;;;17.86;100.00
30967;BME280;17649;51.836;8.330;2023-08-06T14:58:34;99951.41;;;17.76;100.00
30967;BME280;17649;51.836;8.330;2023-08-06T15:01:35;99952.19;;;17.49;100.00
30967;BME280;17649;51.836;8.330;2023-08-06T15:04:35;99947.69;;;17.78;100.00
30967;BME280;17649;51.836;8.330;2023-08-06T15:07:35;99955.41;;;17.70;100.00
30967;BME280;17649;51.836;8.330;2023-08-06T15:10:36;99955.25;;;17.99;100.00
30967;BME280;17649;51.836;8.330;2023-08-06T15:13:36;99950.41;;;18.40;100.00
30967;BME280;17649;51.836;8.330;2023-08-06T15:16:36;99957.16;;;18.86;100.00
30967;BME280;17649;51.836;8.330;2023-08-06T15:19:36;99959.38;;;18.73;100.00
30967;BME280;17649;51.836;8.330;2023-08-06T15:22:36;99965.59;;;18.54;100.00
30967;BME280;17649;51.836;8.330;2023-08-06T15:25:37;99964.78;;;18.97;100.00
30967;BME280;17649;51.836;8.330;2023-08-06T15:28:37;99953.69;;;19.03;100.00
30967;BME280;17649;51.836;8.330;2023-08-06T15:31:37;99972.34;;;19.26;100.00
30967;BME280;17649;51.836;8.330;2023-08-06T15:34:38;99991.31;;;18.59;100.00
30967;BME280;17649;51.836;8.330;2023-08-06T15:37:39;99974.34;;;18.27;100.00
30967;BME280;17649;51.836;8.330;2023-08-06T15:40:39;99996.31;;;17.99;100.00
30967;BME280;17649;51.836;8.330;2023-08-06T15:43:40;100002.53;;;17.61;100.00
30967;BME280;17649;51.836;8.330;2023-08-06T15:46:41;100002.97;;;17.93;100.00
30967;BME280;17649;51.836;8.330;2023-08-06T15:49:41;99996.56;;;17.78;100.00
30967;BME280;17649;51.836;8.330;2023-08-06T15:52:42;99998.31;;;17.87;100.00